Time;durP1;ratioP1;P1;durP2;ratioP2;P2;SDS_P1;SDS_P2;PMS_P1;PMS_P2;Temp;Humidity;BMP_temperature;BMP_pressure;BME280_temperature;BME280_humidity;BME280_pressure;Samples;Min_cycle;Max_cycle;Signal;HPM_P1;HPM_P2
2023/06/07 00:01:45;;;;;;;3.07;2.77;;;18.00;99.90;;;;;;5010452;28;20554;-52
2023/06/07 00:04:12;;;;;;;7.30;2.90;;;18.00;99.90;;;;;;5007634;28;20527;-51
2023/06/07 00:06:40;;;;;;;2.70;2.60;;;17.90;99.90;;;;;;5007586;28;20467;-52
2023/06/07 00:09:08;;;;;;;4.17;3.30;;;17.90;99.90;;;;;;5008322;28;20949;-52
2023/06/07 00:11:34;;;;;;;6.20;3.00;;;17.80;99.90;;;;;;5011174;28;20547;-51
2023/06/07 00:14:02;;;;;;;3.60;3.20;;;17.80;99.90;;;;;;5010714;28;20562;-50
2023/06/07 00:16:29;;;;;;;6.00;3.03;;;17.80;99.90;;;;;;5012777;28;20562;-52
2023/06/07 00:18:55;;;;;;;4.33;3.13;;;17.70;99.90;;;;;;5012293;28;20950;-51
2023/06/07 00:21:22;;;;;;;3.50;3.20;;;17.70;99.90;;;;;;5010793;28;20463;-56
2023/06/07 00:23:49;;;;;;;2.87;2.67;;;17.70;99.90;;;;;;5012634;28;20563;-55
2023/06/07 00:26:16;;;;;;;3.13;2.90;;;17.70;99.90;;;;;;5011696;28;20506;-54
2023/06/07 00:28:42;;;;;;;5.40;2.80;;;17.60;99.90;;;;;;5013475;28;20546;-55
2023/06/07 00:31:10;;;;;;;4.07;3.00;;;17.70;99.90;;;;;;5013563;28;20486;-55
2023/06/07 00:33:37;;;;;;;6.33;3.47;;;17.60;99.90;;;;;;5011443;28;20515;-55
2023/06/07 00:36:04;;;;;;;5.47;2.70;;;17.60;99.90;;;;;;5009335;28;20497;-55
2023/06/07 00:38:30;;;;;;;5.87;3.93;;;17.60;99.90;;;;;;5012259;28;20464;-55
2023/06/07 00:40:57;;;;;;;4.60;3.60;;;17.50;99.90;;;;;;5013527;28;20591;-55
2023/06/07 00:43:24;;;;;;;4.93;3.73;;;17.50;99.90;;;;;;5013397;28;20563;-54
2023/06/07 00:45:51;;;;;;;2.60;2.40;;;17.50;99.90;;;;;;5012701;28;20861;-55
2023/06/07 00:48:19;;;;;;;3.20;2.83;;;17.50;99.90;;;;;;5012735;28;20563;-54
2023/06/07 00:50:46;;;;;;;7.10;3.60;;;17.50;99.90;;;;;;5013279;28;20488;-56
2023/06/07 00:53:13;;;;;;;6.80;3.37;;;17.50;99.90;;;;;;5014084;28;20491;-56
2023/06/07 00:55:39;;;;;;;3.10;2.90;;;17.50;99.90;;;;;;5003616;28;20539;-54
2023/06/07 00:58:07;;;;;;;4.13;2.73;;;17.50;99.90;;;;;;5012328;28;20496;-55
2023/06/07 01:00:34;;;;;;;4.30;3.00;;;17.50;99.90;;;;;;5013726;28;20484;-55
2023/06/07 01:03:03;;;;;;;3.37;3.13;;;17.50;99.90;;;;;;5010824;28;20511;-55
2023/06/07 01:05:31;;;;;;;8.83;3.20;;;17.40;99.90;;;;;;5013162;28;21005;-52
2023/06/07 01:07:58;;;;;;;7.97;3.40;;;17.40;99.90;;;;;;5012865;28;20555;-51
2023/06/07 01:10:24;;;;;;;3.90;3.60;;;17.50;99.90;;;;;;5010771;28;20890;-51
2023/06/07 01:12:54;;;;;;;3.73;3.07;;;17.40;99.90;;;;;;5012222;28;20590;-52
2023/06/07 01:15:21;;;;;;;7.53;3.47;;;17.40;99.90;;;;;;5011232;28;20467;-52
2023/06/07 01:17:49;;;;;;;3.27;3.03;;;17.40;99.90;;;;;;5012707;28;20559;-53
2023/06/07 01:20:22;;;;;;;3.20;2.90;;;17.40;99.90;;;;;;5010572;28;20530;-51
2023/06/07 01:22:52;;;;;;;6.70;3.70;;;17.40;99.90;;;;;;5013149;28;20535;-52
2023/06/07 01:25:20;;;;;;;3.23;3.03;;;17.40;99.90;;;;;;5011885;28;20468;-51
2023/06/07 01:27:50;;;;;;;3.53;3.23;;;17.40;99.90;;;;;;5010340;28;20825;-53
2023/06/07 01:30:17;;;;;;;4.90;3.27;;;17.40;99.90;;;;;;5006358;28;20452;-51
2023/06/07 01:32:44;;;;;;;4.97;3.60;;;17.30;99.90;;;;;;5012178;28;20965;-53
2023/06/07 01:35:12;;;;;;;4.63;3.03;;;17.40;99.90;;;;;;5000026;28;20555;-52
2023/06/07 01:37:39;;;;;;;3.07;2.87;;;17.30;99.90;;;;;;5012714;28;20530;-51
2023/06/07 01:40:08;;;;;;;3.07;2.87;;;17.30;99.90;;;;;;5008585;28;20587;-51
2023/06/07 01:42:38;;;;;;;4.20;3.70;;;17.30;99.90;;;;;;5005010;28;20943;-51
2023/06/07 01:45:06;;;;;;;4.87;3.27;;;17.30;99.90;;;;;;5010257;28;20550;-51
2023/06/07 01:47:34;;;;;;;5.00;3.30;;;17.30;99.90;;;;;;5005347;28;20864;-52
2023/06/07 01:50:01;;;;;;;3.07;2.83;;;17.40;99.90;;;;;;5011853;28;20488;-52
2023/06/07 01:52:28;;;;;;;3.53;3.23;;;17.30;99.90;;;;;;5011577;28;20816;-51
2023/06/07 01:54:55;;;;;;;10.43;3.10;;;17.30;99.90;;;;;;5011228;28;20476;-51
2023/06/07 01:57:30;;;;;;;4.63;4.03;;;17.30;99.90;;;;;;5012296;28;20455;-51
2023/06/07 02:00:10;;;;;;;3.77;3.10;;;17.30;99.90;;;;;;5011082;28;20483;-52
2023/06/07 02:02:45;;;;;;;3.90;3.00;;;17.20;99.90;;;;;;5011798;28;20554;-52
2023/06/07 02:05:15;;;;;;;5.07;3.40;;;17.20;99.90;;;;;;5003512;28;20538;-53
2023/06/07 02:07:47;;;;;;;4.43;3.27;;;17.20;99.90;;;;;;5008977;28;20506;-52
2023/06/07 02:10:16;;;;;;;3.80;3.07;;;17.20;99.90;;;;;;5005995;28;21033;-53
2023/06/07 02:12:43;;;;;;;5.63;3.00;;;17.20;99.90;;;;;;5012767;28;20531;-52
2023/06/07 02:15:12;;;;;;;3.90;2.80;;;17.20;99.90;;;;;;5006483;28;21256;-53
2023/06/07 02:17:48;;;;;;;5.30;3.57;;;17.10;99.90;;;;;;5011689;28;20579;-52
2023/06/07 02:20:15;;;;;;;3.43;2.90;;;17.10;99.90;;;;;;5005870;28;20578;-52
2023/06/07 02:22:41;;;;;;;3.60;2.93;;;17.10;99.90;;;;;;5008722;28;20503;-53
2023/06/07 02:25:09;;;;;;;3.37;3.17;;;17.10;99.90;;;;;;5006562;28;20535;-52
2023/06/07 02:27:36;;;;;;;3.60;3.10;;;17.10;99.90;;;;;;5011263;28;20499;-52
2023/06/07 02:30:03;;;;;;;3.00;2.80;;;17.00;99.90;;;;;;5010614;28;20459;-52
2023/06/07 02:32:33;;;;;;;4.83;3.30;;;17.00;99.90;;;;;;5004594;28;20511;-53
2023/06/07 02:34:59;;;;;;;3.47;3.17;;;17.00;99.90;;;;;;5008518;28;20490;-52
2023/06/07 02:37:26;;;;;;;6.80;3.10;;;17.00;99.90;;;;;;5010224;28;20550;-52
2023/06/07 02:39:52;;;;;;;3.73;3.23;;;16.90;99.90;;;;;;5010602;28;20566;-52
2023/06/07 02:42:19;;;;;;;7.90;4.23;;;16.90;99.90;;;;;;5011407;28;20531;-51
2023/06/07 02:44:46;;;;;;;4.50;3.60;;;16.90;99.90;;;;;;5010954;28;20583;-50
2023/06/07 02:47:12;;;;;;;3.73;3.37;;;16.90;99.90;;;;;;5005936;28;20460;-51
2023/06/07 02:49:40;;;;;;;4.60;3.57;;;16.90;99.90;;;;;;5009239;28;20563;-53
2023/06/07 02:52:08;;;;;;;6.70;4.40;;;16.90;99.90;;;;;;5009791;28;20460;-51
2023/06/07 02:54:36;;;;;;;4.20;3.10;;;16.90;99.90;;;;;;5010810;28;20491;-51
2023/06/07 02:57:02;;;;;;;3.77;3.20;;;16.90;99.90;;;;;;5010700;28;20554;-51
2023/06/07 02:59:29;;;;;;;6.50;3.67;;;16.90;99.90;;;;;;5010562;28;21101;-53
2023/06/07 03:01:55;;;;;;;11.93;3.47;;;16.90;99.90;;;;;;5009267;28;20476;-53
2023/06/07 03:04:22;;;;;;;7.50;3.63;;;16.90;99.90;;;;;;5006195;28;20527;-52
2023/06/07 03:06:51;;;;;;;4.57;3.77;;;16.90;99.90;;;;;;5006620;28;20470;-52
2023/06/07 03:09:18;;;;;;;5.07;3.77;;;16.80;99.90;;;;;;5011586;28;20466;-52
2023/06/07 03:11:45;;;;;;;7.97;3.20;;;16.80;99.90;;;;;;5010296;28;20840;-52
2023/06/07 03:14:12;;;;;;;4.67;2.77;;;16.80;99.90;;;;;;5008197;28;20600;-52
2023/06/07 03:16:38;;;;;;;3.93;3.20;;;16.80;99.90;;;;;;5007877;28;20567;-51
2023/06/07 03:19:05;;;;;;;13.60;3.93;;;16.80;99.90;;;;;;5006286;28;20554;-51
2023/06/07 03:21:31;;;;;;;6.20;3.63;;;16.90;99.90;;;;;;5010694;28;20577;-52
2023/06/07 03:23:59;;;;;;;4.77;3.40;;;16.80;99.90;;;;;;5009147;28;20514;-52
2023/06/07 03:26:26;;;;;;;4.20;3.80;;;16.80;99.90;;;;;;5009087;28;21053;-52
2023/06/07 03:28:54;;;;;;;4.30;3.90;;;16.80;99.90;;;;;;5008650;28;20882;-52
2023/06/07 03:31:21;;;;;;;6.50;3.33;;;16.90;99.90;;;;;;5006603;28;22505;-51
2023/06/07 03:33:47;;;;;;;6.50;3.70;;;16.90;99.90;;;;;;5006512;28;20514;-51
2023/06/07 03:36:14;;;;;;;3.63;3.33;;;16.90;99.90;;;;;;5003150;28;20925;-52
2023/06/07 03:38:40;;;;;;;5.97;3.00;;;16.90;99.90;;;;;;5010714;28;20503;-51
2023/06/07 03:41:08;;;;;;;7.33;3.27;;;16.90;99.90;;;;;;5009131;28;20582;-51
2023/06/07 03:43:35;;;;;;;7.27;3.50;;;16.90;99.90;;;;;;5010457;28;20521;-50
2023/06/07 03:46:01;;;;;;;5.03;3.13;;;16.90;99.90;;;;;;5005139;28;20459;-51
2023/06/07 03:48:28;;;;;;;5.27;3.30;;;16.90;99.90;;;;;;5005615;28;20518;-51
2023/06/07 03:50:54;;;;;;;6.63;3.77;;;16.90;99.90;;;;;;5007986;28;21034;-52
2023/06/07 03:53:21;;;;;;;6.13;3.53;;;16.90;99.90;;;;;;5012267;28;20491;-52
2023/06/07 03:55:49;;;;;;;9.80;3.90;;;16.90;99.90;;;;;;5012052;28;20506;-51
2023/06/07 03:58:18;;;;;;;4.63;3.80;;;16.90;99.90;;;;;;5013586;28;20502;-52
2023/06/07 04:00:45;;;;;;;4.63;3.60;;;17.00;99.90;;;;;;5013957;28;20480;-51
2023/06/07 04:03:11;;;;;;;3.50;3.20;;;16.90;99.90;;;;;;5009639;28;20673;-52
2023/06/07 04:05:38;;;;;;;4.03;3.63;;;16.90;99.90;;;;;;5012740;28;20550;-52
2023/06/07 04:08:06;;;;;;;5.07;3.70;;;17.00;99.90;;;;;;5004406;28;20463;-51
2023/06/07 04:10:33;;;;;;;4.07;3.40;;;16.90;99.90;;;;;;5010489;28;21040;-51
2023/06/07 04:12:59;;;;;;;3.30;3.00;;;17.00;99.90;;;;;;5005987;28;20573;-51
2023/06/07 04:15:27;;;;;;;3.57;3.20;;;17.00;99.90;;;;;;5013396;28;21115;-51
2023/06/07 04:17:54;;;;;;;7.60;3.60;;;17.00;99.90;;;;;;5013713;28;20499;-51
2023/06/07 04:20:21;;;;;;;5.07;3.50;;;17.00;99.90;;;;;;5016984;28;20471;-51
2023/06/07 04:22:51;;;;;;;5.53;3.20;;;17.00;99.90;;;;;;5013382;28;20468;-52
2023/06/07 04:25:18;;;;;;;3.30;3.10;;;17.00;99.90;;;;;;5003775;28;22399;-51
2023/06/07 04:27:46;;;;;;;3.00;2.77;;;17.10;99.90;;;;;;5005615;28;21004;-51
2023/06/07 04:30:15;;;;;;;2.93;2.70;;;17.00;99.90;;;;;;5008653;28;20463;-51
2023/06/07 04:32:44;;;;;;;4.20;3.40;;;17.10;99.90;;;;;;5014918;28;20957;-51
2023/06/07 04:35:14;;;;;;;3.73;3.43;;;17.00;99.90;;;;;;5005794;28;20496;-51
2023/06/07 04:37:42;;;;;;;7.70;3.73;;;17.10;99.90;;;;;;5014440;28;20552;-52
2023/06/07 04:40:10;;;;;;;4.70;3.50;;;17.10;99.90;;;;;;5011924;28;20459;-51
2023/06/07 04:42:38;;;;;;;3.60;3.30;;;17.10;99.90;;;;;;5009182;28;20460;-52
2023/06/07 04:45:06;;;;;;;6.60;4.23;;;17.10;99.90;;;;;;5011436;28;21241;-51
2023/06/07 04:47:33;;;;;;;6.60;3.33;;;17.20;99.90;;;;;;5009810;28;20478;-51
2023/06/07 04:50:01;;;;;;;4.80;2.90;;;17.20;99.90;;;;;;5012801;28;21212;-51
2023/06/07 04:52:28;;;;;;;5.80;3.87;;;17.20;99.90;;;;;;5009663;28;20491;-52
2023/06/07 04:54:56;;;;;;;4.43;4.03;;;17.20;99.90;;;;;;5010291;28;20885;-51
2023/06/07 04:57:23;;;;;;;3.70;3.40;;;17.20;99.90;;;;;;5015255;28;20486;-51
2023/06/07 04:59:51;;;;;;;5.30;3.47;;;17.20;99.90;;;;;;5011447;28;20505;-51
2023/06/07 05:02:17;;;;;;;4.50;3.80;;;17.20;99.90;;;;;;5003295;28;20492;-51
2023/06/07 05:04:44;;;;;;;3.67;3.37;;;17.30;99.90;;;;;;5008374;28;20579;-51
2023/06/07 05:07:13;;;;;;;3.27;2.70;;;17.30;99.90;;;;;;5008831;28;20467;-51
2023/06/07 05:09:40;;;;;;;4.10;3.70;;;17.30;99.90;;;;;;5011760;28;20459;-51
2023/06/07 05:12:08;;;;;;;7.20;3.90;;;17.30;99.90;;;;;;5005231;28;20452;-51
2023/06/07 05:14:34;;;;;;;3.20;3.00;;;17.40;99.90;;;;;;5011140;28;20515;-50
2023/06/07 05:17:01;;;;;;;4.70;3.30;;;17.40;99.90;;;;;;5011998;28;20494;-51
2023/06/07 05:19:29;;;;;;;4.50;3.83;;;17.50;99.90;;;;;;5011009;28;20970;-51
2023/06/07 05:21:55;;;;;;;4.40;3.10;;;17.50;99.90;;;;;;5005433;28;20488;-52
2023/06/07 05:24:23;;;;;;;3.67;3.23;;;17.60;99.90;;;;;;5009859;28;20562;-52
2023/06/07 05:26:50;;;;;;;3.60;3.30;;;17.70;99.90;;;;;;5011253;28;20472;-51
2023/06/07 05:29:16;;;;;;;4.80;3.90;;;17.70;99.90;;;;;;5011014;28;20527;-51
2023/06/07 05:31:43;;;;;;;8.70;4.00;;;17.80;99.90;;;;;;5013517;28;20474;-51
2023/06/07 05:34:09;;;;;;;4.27;3.50;;;17.90;99.90;;;;;;5013042;28;20957;-52
2023/06/07 05:36:36;;;;;;;4.33;3.50;;;18.00;99.90;;;;;;5012868;28;20531;-51
2023/06/07 05:39:03;;;;;;;5.47;3.30;;;18.10;99.90;;;;;;5004947;28;20487;-51
2023/06/07 05:41:30;;;;;;;4.03;3.37;;;18.10;99.90;;;;;;5011897;28;20502;-51
2023/06/07 05:43:57;;;;;;;7.20;3.10;;;18.30;99.90;;;;;;5008432;28;20575;-51
2023/06/07 05:46:23;;;;;;;3.80;3.37;;;18.30;99.90;;;;;;5012096;28;20459;-52
2023/06/07 05:48:50;;;;;;;4.50;3.00;;;18.40;99.90;;;;;;5009652;28;20517;-52
2023/06/07 05:51:17;;;;;;;3.67;3.17;;;18.50;99.90;;;;;;5010433;28;20459;-52
2023/06/07 05:53:44;;;;;;;5.23;3.63;;;18.60;99.90;;;;;;5007742;28;21106;-52
2023/06/07 05:56:15;;;;;;;5.13;3.10;;;18.70;99.90;;;;;;5011191;28;20467;-52
2023/06/07 05:58:44;;;;;;;7.00;3.37;;;18.70;99.90;;;;;;5009811;28;20856;-52
2023/06/07 06:01:12;;;;;;;5.53;3.50;;;18.80;99.90;;;;;;5002934;28;20863;-52
2023/06/07 06:03:39;;;;;;;4.07;3.70;;;18.80;99.90;;;;;;5005843;28;20496;-52
2023/06/07 06:06:14;;;;;;;4.03;3.63;;;18.90;99.90;;;;;;5009099;28;20539;-52
2023/06/07 06:08:40;;;;;;;4.00;3.50;;;18.90;99.90;;;;;;5008598;28;20562;-52
2023/06/07 06:11:07;;;;;;;3.83;3.43;;;19.00;99.90;;;;;;5009411;28;20578;-52
2023/06/07 06:13:33;;;;;;;4.10;3.30;;;19.00;99.90;;;;;;5009089;28;20570;-51
2023/06/07 06:16:01;;;;;;;3.33;3.03;;;19.00;99.90;;;;;;4998816;28;20549;-51
2023/06/07 06:18:28;;;;;;;14.67;3.80;;;19.00;99.90;;;;;;5009537;28;20456;-52
2023/06/07 06:20:55;;;;;;;15.60;3.47;;;19.10;99.90;;;;;;5009968;28;21088;-52
2023/06/07 06:23:21;;;;;;;4.33;3.40;;;19.10;99.90;;;;;;5003343;28;20571;-51
2023/06/07 06:25:48;;;;;;;6.53;3.37;;;19.20;99.90;;;;;;5004609;28;20538;-50
2023/06/07 06:28:15;;;;;;;18.90;4.17;;;19.30;99.90;;;;;;5004658;28;20910;-51
2023/06/07 06:30:42;;;;;;;17.33;3.70;;;19.40;99.90;;;;;;5008121;28;20487;-50
2023/06/07 06:33:10;;;;;;;13.70;3.30;;;19.60;99.90;;;;;;5004751;28;20502;-51
2023/06/07 06:35:36;;;;;;;2.83;2.73;;;19.60;99.90;;;;;;5001818;28;20467;-51
2023/06/07 06:38:03;;;;;;;3.60;3.30;;;19.70;99.90;;;;;;5009154;28;20590;-51
2023/06/07 06:40:29;;;;;;;16.23;3.53;;;19.70;99.90;;;;;;4998255;28;20471;-51
2023/06/07 06:42:56;;;;;;;9.90;3.53;;;19.80;99.90;;;;;;5009093;28;20491;-52
2023/06/07 06:45:23;;;;;;;5.90;3.20;;;19.90;99.90;;;;;;5003100;28;20923;-50
2023/06/07 06:47:49;;;;;;;4.40;3.37;;;20.00;99.90;;;;;;5007630;28;20464;-50
2023/06/07 06:50:17;;;;;;;3.60;3.10;;;20.20;99.90;;;;;;5006505;28;20539;-50
2023/06/07 06:52:43;;;;;;;3.70;3.40;;;20.30;99.90;;;;;;5010360;28;20535;-51
2023/06/07 06:55:10;;;;;;;4.93;3.50;;;20.40;99.90;;;;;;5001229;28;20548;-51
2023/06/07 06:57:37;;;;;;;4.13;3.20;;;20.50;99.90;;;;;;5007690;28;20494;-51
2023/06/07 07:00:06;;;;;;;4.13;3.37;;;20.50;99.90;;;;;;5006948;28;21092;-50
2023/06/07 07:02:32;;;;;;;8.50;3.80;;;20.60;99.90;;;;;;5000662;28;20484;-51
2023/06/07 07:04:59;;;;;;;3.90;3.57;;;20.70;99.90;;;;;;5008769;28;20658;-57
2023/06/07 07:07:27;;;;;;;3.10;2.90;;;20.90;99.90;;;;;;4999900;28;20538;-58
2023/06/07 07:09:54;;;;;;;4.33;3.30;;;21.00;99.90;;;;;;5008565;28;20530;-52
2023/06/07 07:12:21;;;;;;;4.63;3.30;;;21.20;99.90;;;;;;5005030;28;20469;-52
2023/06/07 07:14:48;;;;;;;14.10;4.67;;;21.30;99.90;;;;;;5005498;28;20502;-52
2023/06/07 07:17:14;;;;;;;6.57;3.47;;;21.50;99.90;;;;;;5006023;28;20549;-52
2023/06/07 07:19:41;;;;;;;11.30;3.00;;;21.60;99.90;;;;;;5001193;28;20555;-51
2023/06/07 07:22:07;;;;;;;5.20;3.30;;;21.70;99.90;;;;;;5007213;28;20488;-51
2023/06/07 07:24:35;;;;;;;3.50;3.20;;;21.90;99.90;;;;;;5010485;28;20570;-51
2023/06/07 07:27:02;;;;;;;3.20;3.00;;;21.90;99.90;;;;;;5008721;28;20459;-52
2023/06/07 07:29:28;;;;;;;4.43;3.50;;;22.00;99.90;;;;;;5000826;28;20472;-51
2023/06/07 07:31:55;;;;;;;3.67;3.40;;;22.00;99.90;;;;;;5004888;28;20486;-53
2023/06/07 07:34:22;;;;;;;4.47;3.73;;;22.10;99.90;;;;;;5014976;28;20566;-52
2023/06/07 07:36:50;;;;;;;7.60;3.67;;;22.20;99.90;;;;;;5011473;28;20582;-52
2023/06/07 07:39:17;;;;;;;6.93;3.33;;;22.30;99.90;;;;;;5007507;28;20490;-52
2023/06/07 07:41:45;;;;;;;4.50;3.27;;;22.40;99.90;;;;;;5007929;28;20604;-52
2023/06/07 07:44:11;;;;;;;5.43;3.87;;;22.50;99.90;;;;;;5009560;28;20510;-52
2023/06/07 07:46:38;;;;;;;4.20;3.80;;;22.60;99.90;;;;;;5010294;28;20511;-53
2023/06/07 07:49:04;;;;;;;3.50;3.20;;;22.60;99.90;;;;;;5009673;28;20459;-51
2023/06/07 07:51:31;;;;;;;5.43;3.57;;;22.70;99.90;;;;;;5011631;28;20555;-52
2023/06/07 07:53:57;;;;;;;6.43;3.20;;;22.80;99.90;;;;;;5010448;28;21034;-52
2023/06/07 07:56:24;;;;;;;3.80;3.50;;;22.90;99.90;;;;;;5007424;28;20542;-52
2023/06/07 07:58:54;;;;;;;3.77;3.43;;;23.00;99.90;;;;;;5008429;28;20879;-50
2023/06/07 08:01:21;;;;;;;4.83;3.40;;;23.10;99.90;;;;;;5007297;28;20546;-52
2023/06/07 08:03:48;;;;;;;3.50;3.30;;;23.20;99.90;;;;;;5012207;28;21055;-52
2023/06/07 08:06:15;;;;;;;3.83;3.53;;;23.30;99.90;;;;;;5013510;28;20644;-50
2023/06/07 08:08:41;;;;;;;3.83;3.23;;;23.20;99.90;;;;;;5009679;28;20471;-52
2023/06/07 08:11:08;;;;;;;3.83;3.10;;;23.30;99.90;;;;;;5009404;28;20563;-52
2023/06/07 08:13:35;;;;;;;9.10;4.10;;;23.40;99.90;;;;;;5012352;28;20557;-52
2023/06/07 08:16:02;;;;;;;15.70;3.30;;;23.50;99.90;;;;;;5012149;28;20887;-52
2023/06/07 08:18:29;;;;;;;6.20;3.50;;;23.40;99.90;;;;;;5013039;28;20550;-51
2023/06/07 08:20:55;;;;;;;4.47;3.20;;;23.50;99.90;;;;;;5012257;28;20486;-52
2023/06/07 08:23:22;;;;;;;4.57;2.70;;;23.60;99.90;;;;;;5010876;28;20582;-51
2023/06/07 08:25:48;;;;;;;5.30;3.20;;;23.80;99.90;;;;;;5010823;28;20550;-52
2023/06/07 08:28:16;;;;;;;3.53;2.70;;;23.80;99.90;;;;;;5011068;28;20550;-51
2023/06/07 08:30:42;;;;;;;12.10;3.27;;;24.00;99.90;;;;;;5011392;28;20459;-52
2023/06/07 08:33:11;;;;;;;3.90;3.60;;;24.10;99.90;;;;;;5012313;28;20507;-52
2023/06/07 08:35:37;;;;;;;6.57;3.47;;;24.10;99.90;;;;;;5007901;28;20890;-52
2023/06/07 08:38:04;;;;;;;9.37;2.90;;;24.00;99.90;;;;;;5006814;28;20464;-56
2023/06/07 08:40:33;;;;;;;3.47;2.90;;;24.00;99.90;;;;;;5005268;28;20460;-52
2023/06/07 08:43:00;;;;;;;14.37;3.10;;;24.20;99.90;;;;;;5002035;28;21048;-52
2023/06/07 08:45:27;;;;;;;3.53;3.30;;;24.30;99.90;;;;;;5005687;28;20493;-52
2023/06/07 08:47:57;;;;;;;6.00;3.20;;;24.30;99.90;;;;;;5006060;28;20492;-51
2023/06/07 08:50:25;;;;;;;3.10;2.90;;;24.50;99.90;;;;;;5001120;28;20547;-51
2023/06/07 08:52:55;;;;;;;2.23;2.13;;;24.60;99.90;;;;;;5009704;28;20560;-51
2023/06/07 08:55:22;;;;;;;6.33;3.30;;;24.70;99.90;;;;;;5002788;28;20483;-55
2023/06/07 08:57:52;;;;;;;3.33;3.03;;;24.80;99.90;;;;;;5009657;28;20459;-54
2023/06/07 09:00:22;;;;;;;2.80;2.60;;;24.90;99.90;;;;;;5009575;28;20452;-55
2023/06/07 09:02:51;;;;;;;3.57;3.23;;;25.30;99.90;;;;;;5010188;28;20924;-54
2023/06/07 09:05:18;;;;;;;3.00;2.77;;;25.50;99.90;;;;;;5009605;28;20547;-52
2023/06/07 09:07:45;;;;;;;4.90;2.80;;;25.50;99.90;;;;;;5011736;28;20547;-52
2023/06/07 09:10:13;;;;;;;5.17;3.33;;;25.20;99.90;;;;;;5006560;28;20563;-53
2023/06/07 09:12:39;;;;;;;3.83;3.30;;;25.40;99.90;;;;;;4999556;28;20460;-52
2023/06/07 09:15:08;;;;;;;2.47;2.27;;;25.30;99.90;;;;;;5000002;28;21040;-52
2023/06/07 09:17:51;;;;;;;6.03;3.10;;;25.30;99.90;;;;;;5008184;28;20471;-51
2023/06/07 09:20:20;;;;;;;2.77;2.60;;;25.10;99.90;;;;;;5008471;28;20963;-51
2023/06/07 09:22:57;;;;;;;4.00;3.30;;;24.80;99.90;;;;;;5008770;28;20887;-53
2023/06/07 09:25:23;;;;;;;3.53;3.23;;;24.90;99.90;;;;;;5005432;28;20554;-51
2023/06/07 09:27:50;;;;;;;4.40;3.53;;;24.80;99.90;;;;;;5008149;28;20546;-52
2023/06/07 09:30:18;;;;;;;3.70;2.63;;;24.80;99.90;;;;;;5006763;28;21039;-52
2023/06/07 09:32:45;;;;;;;6.23;3.30;;;24.70;99.90;;;;;;5004841;28;20459;-52
2023/06/07 09:35:13;;;;;;;4.30;3.10;;;24.60;99.90;;;;;;5005118;28;20551;-51
2023/06/07 09:37:42;;;;;;;6.40;3.00;;;24.60;99.90;;;;;;5008331;28;21376;-52
2023/06/07 09:40:10;;;;;;;3.10;2.90;;;24.70;99.90;;;;;;5001144;28;20460;-52
2023/06/07 09:42:37;;;;;;;4.23;2.87;;;24.80;99.90;;;;;;5000276;28;20491;-51
2023/06/07 09:45:14;;;;;;;7.27;3.13;;;24.80;99.90;;;;;;5001077;28;20543;-52
2023/06/07 09:47:42;;;;;;;4.10;3.03;;;24.80;99.90;;;;;;5000938;28;20828;-52
2023/06/07 09:50:11;;;;;;;7.60;3.13;;;25.20;99.90;;;;;;5002690;28;20464;-52
2023/06/07 09:52:38;;;;;;;9.67;2.63;;;25.70;99.90;;;;;;5006731;28;20969;-52
2023/06/07 09:55:07;;;;;;;3.23;3.03;;;26.20;99.90;;;;;;5011326;28;20480;-52
2023/06/07 09:57:36;;;;;;;3.60;3.20;;;26.70;84.10;;;;;;5009187;28;20467;-51
2023/06/07 10:00:14;;;;;;;2.60;2.40;;;27.00;87.30;;;;;;5007235;28;21036;-51
2023/06/07 10:02:42;;;;;;;6.80;2.93;;;27.30;76.50;;;;;;5008409;28;21047;-52
2023/06/07 10:05:09;;;;;;;8.80;3.07;;;27.30;74.10;;;;;;4999660;28;20467;-52
2023/06/07 10:07:38;;;;;;;5.33;3.20;;;27.70;76.90;;;;;;5007044;28;21080;-53
2023/06/07 10:10:07;;;;;;;6.80;3.30;;;28.00;79.50;;;;;;5000807;28;20471;-53
2023/06/07 10:12:40;;;;;;;9.43;3.10;;;28.10;20.80;;;;;;5004982;28;20518;-52
2023/06/07 10:15:09;;;;;;;11.50;3.03;;;27.90;20.00;;;;;;5001225;28;20460;-52
2023/06/07 10:17:45;;;;;;;4.27;3.10;;;28.00;21.80;;;;;;5002854;28;20487;-51
2023/06/07 10:20:16;;;;;;;5.57;2.97;;;28.50;21.70;;;;;;5002592;28;20542;-52
2023/06/07 10:22:45;;;;;;;4.37;2.60;;;28.10;23.40;;;;;;5007202;28;20495;-51
2023/06/07 10:25:17;;;;;;;5.47;2.73;;;28.00;22.70;;;;;;5000850;28;20603;-51
2023/06/07 10:27:54;;;;;;;2.77;2.57;;;27.90;23.90;;;;;;5008592;28;20468;-52
2023/06/07 10:30:23;;;;;;;7.30;3.17;;;28.10;24.50;;;;;;5005534;28;20499;-51
2023/06/07 10:32:52;;;;;;;3.10;2.80;;;28.10;23.40;;;;;;4999183;28;21041;-52
2023/06/07 10:35:20;;;;;;;2.70;2.57;;;28.10;24.60;;;;;;5005205;28;20575;-51
2023/06/07 10:37:50;;;;;;;4.60;2.93;;;28.30;23.10;;;;;;5004301;28;20471;-53
2023/06/07 10:40:17;;;;;;;3.30;3.00;;;28.00;23.30;;;;;;5004829;28;20543;-53
2023/06/07 10:42:46;;;;;;;4.37;2.80;;;27.80;24.30;;;;;;5004733;28;20487;-52
2023/06/07 10:45:15;;;;;;;3.37;2.87;;;27.80;20.90;;;;;;5007080;28;20488;-51
2023/06/07 10:47:42;;;;;;;3.83;2.93;;;28.30;22.70;;;;;;5009994;28;20470;-52
2023/06/07 10:50:34;;;;;;;3.17;2.97;;;28.40;21.00;;;;;;5002152;28;20550;-52
2023/06/07 10:53:02;;;;;;;9.03;3.17;;;27.70;25.10;;;;;;5003766;28;20480;-52
2023/06/07 10:55:31;;;;;;;5.63;2.83;;;27.40;23.60;;;;;;5009397;28;20967;-52
2023/06/07 10:58:00;;;;;;;7.77;3.40;;;27.20;23.10;;;;;;5006440;28;20464;-52
2023/06/07 11:00:29;;;;;;;5.90;3.00;;;27.20;21.40;;;;;;5006467;28;21162;-51
2023/06/07 11:03:35;;;;;;;4.07;3.23;;;27.20;20.50;;;;;;5001787;28;20545;-52
2023/06/07 11:06:09;;;;;;;5.23;3.10;;;27.60;20.70;;;;;;5002041;28;20460;-51
2023/06/07 11:08:37;;;;;;;4.13;2.93;;;27.80;23.40;;;;;;5006266;28;20463;-52
2023/06/07 11:11:05;;;;;;;9.27;3.63;;;28.30;24.20;;;;;;5004976;28;20470;-52
2023/06/07 11:14:11;;;;;;;4.13;3.40;;;28.50;23.20;;;;;;5005947;28;20476;-52
2023/06/07 11:16:38;;;;;;;5.47;3.37;;;28.40;23.10;;;;;;4993396;28;20460;-51
2023/06/07 11:19:09;;;;;;;3.33;3.07;;;28.90;23.20;;;;;;5005892;28;20459;-52
2023/06/07 11:22:06;;;;;;;3.53;3.00;;;28.40;25.10;;;;;;4999434;28;20467;-52
2023/06/07 11:24:34;;;;;;;16.13;3.47;;;28.10;21.80;;;;;;5000728;28;20490;-52
2023/06/07 11:27:01;;;;;;;7.80;3.47;;;28.00;23.60;;;;;;4993885;28;20451;-52
2023/06/07 11:29:31;;;;;;;3.47;3.13;;;28.30;23.90;;;;;;5006425;28;20551;-52
2023/06/07 11:31:59;;;;;;;3.03;2.80;;;28.60;23.30;;;;;;5000555;28;20456;-52
2023/06/07 11:34:29;;;;;;;3.73;3.10;;;28.80;23.40;;;;;;5004917;28;20508;-52
2023/06/07 11:37:13;;;;;;;5.17;2.90;;;29.10;22.60;;;;;;5002981;28;20460;-52
2023/06/07 11:39:40;;;;;;;4.97;3.37;;;29.20;26.30;;;;;;5006368;28;20961;-52
2023/06/07 11:42:07;;;;;;;3.63;3.33;;;29.10;26.90;;;;;;5008262;28;20483;-52
2023/06/07 11:44:35;;;;;;;3.63;3.27;;;28.90;26.70;;;;;;5008278;28;20579;-51
2023/06/07 11:47:06;;;;;;;4.43;2.90;;;28.70;26.40;;;;;;5008409;28;20467;-52
2023/06/07 11:49:34;;;;;;;2.90;2.70;;;29.00;25.70;;;;;;5007205;28;20547;-52
2023/06/07 11:52:00;;;;;;;5.13;2.97;;;28.90;25.60;;;;;;5007451;28;20547;-51
2023/06/07 11:54:27;;;;;;;5.57;2.97;;;29.10;25.50;;;;;;5002542;28;20510;-52
2023/06/07 11:56:54;;;;;;;4.13;2.83;;;28.70;28.30;;;;;;5007940;28;20451;-52
2023/06/07 11:59:21;;;;;;;4.73;3.47;;;29.00;27.20;;;;;;5009048;28;20459;-52
2023/06/07 12:01:53;;;;;;;2.67;2.47;;;29.00;27.80;;;;;;5010455;28;20467;-52
2023/06/07 12:04:21;;;;;;;25.53;3.10;;;29.40;26.70;;;;;;5008227;28;20491;-52
2023/06/07 12:06:48;;;;;;;4.77;2.83;;;29.10;26.50;;;;;;5009878;28;20551;-52
2023/06/07 12:09:15;;;;;;;2.87;2.67;;;28.60;26.50;;;;;;5004455;28;20463;-53
2023/06/07 12:11:42;;;;;;;13.33;3.37;;;28.50;26.30;;;;;;5003245;28;20487;-53
2023/06/07 12:14:09;;;;;;;3.60;3.40;;;28.40;23.60;;;;;;4999508;28;20474;-52
2023/06/07 12:16:38;;;;;;;5.83;3.00;;;28.30;26.20;;;;;;5006241;28;20487;-52
2023/06/07 12:19:06;;;;;;;5.57;2.77;;;28.00;24.40;;;;;;5003350;28;20467;-52
2023/06/07 12:21:32;;;;;;;3.70;3.03;;;28.00;25.10;;;;;;5010873;28;20570;-52
2023/06/07 12:24:01;;;;;;;16.53;7.07;;;28.10;23.80;;;;;;5005218;28;20585;-51
2023/06/07 12:26:28;;;;;;;3.10;2.80;;;28.30;25.80;;;;;;5004687;28;20813;-51
2023/06/07 12:28:55;;;;;;;7.37;3.10;;;28.40;26.00;;;;;;5011147;28;20467;-51
2023/06/07 12:31:22;;;;;;;6.17;3.40;;;28.10;26.00;;;;;;5008353;28;21591;-51
2023/06/07 12:33:56;;;;;;;5.07;3.80;;;27.50;27.40;;;;;;5009067;28;20846;-51
2023/06/07 12:36:27;;;;;;;7.87;4.83;;;27.60;26.60;;;;;;5008721;28;20821;-52
2023/06/07 12:38:54;;;;;;;3.37;3.07;;;27.50;24.50;;;;;;5008769;28;20559;-52
2023/06/07 12:41:23;;;;;;;4.33;2.80;;;27.50;24.50;;;;;;5015582;28;20490;-54
2023/06/07 12:43:50;;;;;;;10.77;2.97;;;28.00;24.50;;;;;;5006993;28;20491;-55
2023/06/07 12:46:17;;;;;;;12.07;4.50;;;28.20;26.40;;;;;;5007577;28;21372;-56
2023/06/07 12:48:43;;;;;;;14.67;5.00;;;29.00;25.10;;;;;;5009013;28;20460;-55
2023/06/07 12:51:11;;;;;;;54.63;22.87;;;28.90;27.20;;;;;;5018147;28;20539;-55